createdAt,value
2023-01-19T00:03:27.578Z,1012.8
2023-01-19T00:09:09.560Z,1012.7
2023-01-19T00:14:22.015Z,1012.5
2023-01-19T00:19:57.978Z,1012.4
2023-01-19T00:25:46.700Z,1012.5
2023-01-19T00:30:54.048Z,1012.7
2023-01-19T00:36:27.045Z,1012.8
2023-01-19T00:42:19.374Z,1013
2023-01-19T00:47:36.089Z,1012.9
2023-01-19T00:53:05.731Z,1012.8
2023-01-19T00:58:59.044Z,1012.7
2023-01-19T01:04:38.999Z,1012.9
2023-01-19T01:10:11.126Z,1012.7
2023-01-19T01:15:32.329Z,1012.9
2023-01-19T01:21:01.903Z,1012.9
2023-01-19T01:26:45.488Z,1013.1
2023-01-19T01:31:58.525Z,1013.1
2023-01-19T01:37:41.178Z,1013
2023-01-19T01:43:05.725Z,1013.1
2023-01-19T01:48:54.647Z,1013.1
2023-01-19T01:54:18.464Z,1013.2
2023-01-19T01:59:41.701Z,1013.3
2023-01-19T02:05:25.682Z,1013.3
2023-01-19T02:10:46.693Z,1013.4
2023-01-19T02:16:29.857Z,1013.4
2023-01-19T02:21:54.441Z,1013.4
2023-01-19T02:27:34.105Z,1013.3
2023-01-19T02:32:54.891Z,1013.4
2023-01-19T02:38:41.671Z,1013.4
2023-01-19T02:44:03.950Z,1013.4
2023-01-19T02:49:58.455Z,1013.5
2023-01-19T02:55:33.215Z,1013.5
2023-01-19T03:00:41.869Z,1013.7
2023-01-19T03:06:13.700Z,1013.6
2023-01-19T03:11:49.596Z,1013.7
2023-01-19T03:17:34.977Z,1013.6
2023-01-19T03:23:08.757Z,1013.7
2023-01-19T03:28:49.366Z,1013.7
2023-01-19T03:33:58.834Z,1013.7
2023-01-19T03:39:44.239Z,1013.8
2023-01-19T03:45:04.160Z,1013.8
2023-01-19T03:50:35.153Z,1013.9
2023-01-19T03:56:16.028Z,1014
2023-01-19T04:01:37.531Z,1014.1
2023-01-19T04:07:27.699Z,1014.2
2023-01-19T04:13:06.819Z,1014.3
2023-01-19T04:18:38.917Z,1014.1
2023-01-19T04:24:13.073Z,1014.4
2023-01-19T04:29:22.929Z,1014.4
2023-01-19T04:35:16.222Z,1014.6
2023-01-19T04:40:32.335Z,1014.6
2023-01-19T04:46:18.969Z,1014.6
2023-01-19T04:51:49.170Z,1014.5
2023-01-19T04:57:02.014Z,1014.6
2023-01-19T05:19:31.141Z,1014.8
2023-01-19T05:25:05.416Z,1014.8
2023-01-19T05:30:33.289Z,1014.9
2023-01-19T05:36:01.928Z,1014.9
2023-01-19T05:41:47.459Z,1015
2023-01-19T05:47:26.584Z,1015.1
2023-01-19T05:52:30.938Z,1015.3
2023-01-19T05:58:21.232Z,1015.2
2023-01-19T06:03:52.003Z,1015.1
2023-01-19T06:09:33.022Z,1015.3
2023-01-19T06:14:57.031Z,1015.3
2023-01-19T06:20:27.288Z,1015.3
2023-01-19T06:26:03.977Z,1015.5
2023-01-19T06:31:36.866Z,1015.3
2023-01-19T06:36:56.725Z,1015.5
2023-01-19T06:42:42.345Z,1015.6
2023-01-19T06:48:09.634Z,1015.6
2023-01-19T06:53:41.398Z,1015.7
2023-01-19T06:59:14.956Z,1015.7
2023-01-19T07:04:36.932Z,1015.8
2023-01-19T07:10:26.109Z,1015.9
2023-01-19T07:16:00.450Z,1015.9
2023-01-19T07:21:29.342Z,1016
2023-01-19T07:26:58.494Z,1016.2
2023-01-19T07:32:43.333Z,1016.2
2023-01-19T07:38:00.263Z,1016
2023-01-19T07:43:27.394Z,1016
2023-01-19T07:49:11.242Z,1016.1
2023-01-19T07:54:44.535Z,1016.1
2023-01-19T08:00:16.483Z,1016.1
2023-01-19T08:05:38.163Z,1016.1
2023-01-19T08:11:34.069Z,1016
2023-01-19T08:16:47.416Z,1016.2
2023-01-19T08:22:28.362Z,1016.1
2023-01-19T08:27:47.059Z,1016.2
2023-01-19T08:33:44.397Z,1016.3
2023-01-19T08:38:54.686Z,1016.1
2023-01-19T08:44:27.582Z,1016.2
2023-01-19T08:50:07.399Z,1016.1
2023-01-19T08:55:37.274Z,1015.9
2023-01-19T09:01:11.261Z,1016.1
2023-01-19T09:06:54.794Z,1016.1
2023-01-19T09:12:32.049Z,1015.6
2023-01-19T09:17:55.303Z,1015.6
2023-01-19T09:23:41.950Z,1015.6
2023-01-19T09:28:53.804Z,1015.8
2023-01-19T09:34:31.021Z,1015.8
2023-01-19T09:40:12.670Z,1015.7
2023-01-19T09:45:56.689Z,1015.7
2023-01-19T09:51:21.791Z,1015.7
2023-01-19T09:56:43.214Z,1015.7
2023-01-19T10:02:31.657Z,1015.6
2023-01-19T10:07:47.734Z,1015.7
2023-01-19T10:13:40.123Z,1015.3
2023-01-19T10:18:58.024Z,1015.2
2023-01-19T10:24:24.909Z,1015
2023-01-19T10:30:12.725Z,1014.8
2023-01-19T10:35:52.297Z,1014.7
2023-01-19T10:41:01.568Z,1015
2023-01-19T10:46:48.648Z,1014.8
2023-01-19T10:57:44.584Z,1014.4
2023-01-19T11:03:23.648Z,1014.3
2023-01-19T11:08:59.306Z,1014.2
2023-01-19T11:14:29.114Z,1014.3
2023-01-19T11:20:04.454Z,1014.2
2023-01-19T11:25:49.892Z,1014.1
2023-01-19T11:31:07.848Z,1014
2023-01-19T11:36:37.212Z,1013.9
2023-01-19T11:42:28.833Z,1013.9
2023-01-19T11:48:00.147Z,1013.9
2023-01-19T11:53:39.772Z,1013.8
2023-01-19T11:59:15.522Z,1013.8
2023-01-19T12:04:32.688Z,1013.9
2023-01-19T12:10:01.091Z,1014
2023-01-19T12:15:42.271Z,1014
2023-01-19T12:21:08.164Z,1014
2023-01-19T12:32:36.332Z,1013.9
2023-01-19T12:37:50.252Z,1013.8
2023-01-19T12:43:28.135Z,1013.8
2023-01-19T12:49:16.265Z,1013.7
2023-01-19T12:54:33.644Z,1013.5
2023-01-19T13:00:20.979Z,1013.4
2023-01-19T13:05:47.703Z,1013.3
2023-01-19T13:11:24.310Z,1013.5
2023-01-19T13:16:50.761Z,1013.5
2023-01-19T13:22:47.887Z,1013.5
2023-01-19T13:28:07.664Z,1013.5
2023-01-19T13:33:45.156Z,1013.7
2023-01-19T13:39:13.760Z,1013.8
2023-01-19T13:44:42.961Z,1013.7
2023-01-19T13:50:22.110Z,1013.7
2023-01-19T13:55:56.863Z,1013.7
2023-01-19T14:01:35.133Z,1013.7
2023-01-19T14:07:18.253Z,1013.7
2023-01-19T14:12:51.278Z,1013.7
2023-01-19T14:18:22.683Z,1013.6
2023-01-19T14:24:05.719Z,1013.6
2023-01-19T14:29:37.376Z,1013.5
2023-01-19T14:35:02.674Z,1013.6
2023-01-19T14:40:41.386Z,1013.6
2023-01-19T14:46:10.881Z,1013.4
2023-01-19T14:51:55.714Z,1013.5
2023-01-19T14:57:29.290Z,1013.5
2023-01-19T15:02:47.661Z,1013.6
2023-01-19T15:08:11.190Z,1013.5
2023-01-19T15:13:43.847Z,1013.5
2023-01-19T15:19:19.839Z,1013.5
2023-01-19T15:25:12.323Z,1013.5
2023-01-19T15:30:51.805Z,1013.4
2023-01-19T15:36:13.543Z,1013.4
2023-01-19T15:41:54.414Z,1013.4
2023-01-19T15:47:24.092Z,1013.5
2023-01-19T15:52:55.688Z,1013.4
2023-01-19T15:58:30.829Z,1013.4
2023-01-19T16:03:45.601Z,1013.3
2023-01-19T16:09:42.000Z,1013.3
2023-01-19T16:15:09.624Z,1013.4
2023-01-19T16:20:44.253Z,1013.4
2023-01-19T16:25:55.199Z,1013.5
2023-01-19T16:31:33.168Z,1013.5
2023-01-19T16:37:03.166Z,1013.5
2023-01-19T16:42:54.688Z,1013.4
2023-01-19T16:48:28.157Z,1013.5
2023-01-19T16:53:39.583Z,1013.4
2023-01-19T16:59:27.519Z,1013.5
2023-01-19T17:05:08.119Z,1013.6
2023-01-19T17:10:46.197Z,1013.5
2023-01-19T17:16:03.786Z,1013.6
2023-01-19T17:21:23.882Z,1013.8
2023-01-19T17:27:19.529Z,1013.8
2023-01-19T17:32:53.862Z,1013.7
2023-01-19T17:38:06.227Z,1013.7
2023-01-19T17:43:56.684Z,1013.8
2023-01-19T17:49:15.615Z,1013.7
2023-01-19T17:55:07.781Z,1013.6
2023-01-19T18:00:21.438Z,1013.8
2023-01-19T18:05:53.500Z,1013.7
2023-01-19T18:11:38.706Z,1013.7
2023-01-19T18:22:49.982Z,1013.6
2023-01-19T18:28:19.272Z,1013.6
2023-01-19T18:33:32.279Z,1013.5
2023-01-19T18:39:14.300Z,1013.4
2023-01-19T18:44:36.455Z,1013.5
2023-01-19T18:50:24.719Z,1013.5
2023-01-19T18:55:45.195Z,1013.6
2023-01-19T19:01:37.101Z,1013.6
2023-01-19T19:07:10.140Z,1013.5
2023-01-19T19:12:37.658Z,1013.4
2023-01-19T19:18:11.479Z,1013.4
2023-01-19T19:23:31.817Z,1013.4
2023-01-19T19:29:02.130Z,1013.3
2023-01-19T19:34:45.462Z,1013.4
2023-01-19T19:40:08.738Z,1013.6
2023-01-19T19:45:49.744Z,1013.5
2023-01-19T19:51:28.444Z,1013.7
2023-01-19T19:57:00.384Z,1013.7
2023-01-19T20:02:13.813Z,1013.9
2023-01-19T20:08:04.181Z,1013.9
2023-01-19T20:13:24.425Z,1013.9
2023-01-19T20:19:07.447Z,1013.9
2023-01-19T20:24:22.371Z,1013.9
2023-01-19T20:30:19.424Z,1013.9
2023-01-19T20:35:31.152Z,1014
2023-01-19T20:41:12.872Z,1013.9
2023-01-19T20:46:56.775Z,1014.1
2023-01-19T20:52:28.492Z,1014.1
2023-01-19T20:57:46.758Z,1014.2
2023-01-19T21:03:18.581Z,1014.2
2023-01-19T21:08:54.216Z,1014.4
2023-01-19T21:14:35.753Z,1014.3
2023-01-19T21:20:07.003Z,1014.4
2023-01-19T21:25:27.796Z,1014.4
2023-01-19T21:31:03.067Z,1014.4
2023-01-19T21:36:37.539Z,1014.3
2023-01-19T21:42:12.739Z,1014.3
2023-01-19T21:47:57.824Z,1014.4
2023-01-19T21:53:25.400Z,1014.5
2023-01-19T21:58:51.058Z,1014.6
2023-01-19T22:04:35.730Z,1014.6
2023-01-19T22:09:57.827Z,1014.6
2023-01-19T22:15:30.923Z,1014.7
2023-01-19T22:20:57.273Z,1014.8
2023-01-19T22:26:18.475Z,1014.8
2023-01-19T22:32:08.042Z,1014.8
2023-01-19T22:37:49.714Z,1014.9
2023-01-19T22:43:10.993Z,1014.9
2023-01-19T22:48:44.890Z,1014.9
2023-01-19T22:54:04.561Z,1015.1
2023-01-19T22:59:43.451Z,1015.1
2023-01-19T23:05:10.035Z,1015.2
2023-01-19T23:10:47.989Z,1015.2
2023-01-19T23:16:24.088Z,1015.3
2023-01-19T23:21:46.886Z,1015.3
2023-01-19T23:27:31.399Z,1015.3
2023-01-19T23:33:09.701Z,1015.5
2023-01-19T23:38:23.684Z,1015.5
2023-01-19T23:44:09.344Z,1015.6
2023-01-19T23:49:36.214Z,1015.8
2023-01-19T23:55:17.561Z,1015.8
